createdAt,value
2022-10-09T00:00:27.652Z,101837.19
2022-10-09T00:01:44.276Z,101840.66
2022-10-09T00:03:02.165Z,101837.55
2022-10-09T00:04:18.554Z,101832.97
2022-10-09T00:05:36.406Z,101835.55
2022-10-09T00:06:52.786Z,101834.81
2022-10-09T00:08:10.916Z,101833.34
2022-10-09T00:09:28.743Z,101827.14
2022-10-09T00:10:46.576Z,101831.45
2022-10-09T00:12:04.410Z,101837.03
2022-10-09T00:13:20.836Z,101838.84
2022-10-09T00:14:37.487Z,101842.63
2022-10-09T00:15:55.347Z,101842.39
2022-10-09T00:17:11.809Z,101843.30
2022-10-09T00:18:28.171Z,101849.23
2022-10-09T00:19:44.538Z,101843.25
2022-10-09T00:21:02.688Z,101844.16
2022-10-09T00:22:19.047Z,101847.38
2022-10-09T00:23:35.449Z,101847.43
2022-10-09T00:24:51.818Z,101842.89
2022-10-09T00:26:08.570Z,101847.45
2022-10-09T00:27:25.179Z,101846.00
2022-10-09T00:28:41.620Z,101849.92
2022-10-09T00:29:57.988Z,101849.68
2022-10-09T00:31:15.926Z,101850.59
2022-10-09T00:32:32.290Z,101852.84
2022-10-09T00:33:48.936Z,101850.99
2022-10-09T00:35:06.770Z,101856.06
2022-10-09T00:36:23.171Z,101851.17
2022-10-09T00:37:40.991Z,101856.77
2022-10-09T00:38:58.830Z,101850.42
2022-10-09T00:40:15.482Z,101855.70
2022-10-09T00:41:33.351Z,101859.34
2022-10-09T00:42:49.943Z,101857.41
2022-10-09T00:44:07.892Z,101858.19
2022-10-09T00:45:25.704Z,101858.14
2022-10-09T00:46:43.854Z,101858.68
2022-10-09T00:48:00.213Z,101853.14
2022-10-09T00:49:18.066Z,101859.21
2022-10-09T00:50:34.433Z,101857.84
2022-10-09T00:51:52.305Z,101857.56
2022-10-09T00:53:08.942Z,101857.95
2022-10-09T00:54:26.773Z,101859.26
2022-10-09T00:55:43.165Z,101854.33
2022-10-09T00:56:59.544Z,101856.22
2022-10-09T00:58:17.358Z,101859.62
2022-10-09T00:59:34.124Z,101858.27
2022-10-09T01:00:52.010Z,101857.82
2022-10-09T01:02:08.413Z,101856.22
2022-10-09T01:03:26.265Z,101856.48
2022-10-09T01:04:42.947Z,101853.14
2022-10-09T01:05:59.327Z,101849.54
2022-10-09T01:07:17.160Z,101848.70
2022-10-09T01:08:33.547Z,101842.74
2022-10-09T01:09:49.946Z,101847.42
2022-10-09T01:11:08.098Z,101839.16
2022-10-09T01:12:24.468Z,101847.80
2022-10-09T01:13:42.313Z,101846.58
2022-10-09T01:14:58.707Z,101850.31
2022-10-09T01:16:15.334Z,101848.80
2022-10-09T01:17:32.996Z,101851.08
2022-10-09T01:18:49.377Z,101844.54
2022-10-09T01:20:07.249Z,101850.52
2022-10-09T01:21:23.629Z,101851.78
2022-10-09T01:22:41.450Z,101849.81
2022-10-09T01:23:57.828Z,101844.80
2022-10-09T01:25:14.229Z,101842.19
2022-10-09T01:26:32.950Z,101844.28
2022-10-09T01:27:49.291Z,101842.58
2022-10-09T01:29:07.457Z,101847.33
2022-10-09T01:30:23.840Z,101840.20
2022-10-09T01:31:41.681Z,101844.38
2022-10-09T01:32:58.044Z,101840.83
2022-10-09T01:34:15.900Z,101839.59
2022-10-09T01:35:32.542Z,101840.18
2022-10-09T01:36:50.383Z,101838.94
2022-10-09T01:38:08.191Z,101839.78
2022-10-09T01:39:24.592Z,101838.11
2022-10-09T01:40:42.424Z,101836.20
2022-10-09T01:41:59.108Z,101838.29
2022-10-09T01:43:16.953Z,101831.97
2022-10-09T01:44:33.392Z,101839.34
2022-10-09T01:45:49.776Z,101831.62
2022-10-09T01:47:06.163Z,101837.53
2022-10-09T01:48:22.794Z,101834.27
2022-10-09T01:49:39.205Z,101836.43
2022-10-09T01:50:57.036Z,101831.02
2022-10-09T01:52:13.416Z,101831.67
2022-10-09T01:53:31.278Z,101830.78
2022-10-09T01:54:47.926Z,101826.62
2022-10-09T01:56:04.325Z,101831.44
2022-10-09T01:57:22.164Z,101825.61
2022-10-09T01:58:40.007Z,101828.77
2022-10-09T01:59:56.393Z,101826.21
2022-10-09T02:01:12.778Z,101828.14
2022-10-09T02:02:29.181Z,101825.34
2022-10-09T02:03:45.607Z,101825.24
2022-10-09T02:05:01.987Z,101824.45
2022-10-09T02:06:18.356Z,101825.16
2022-10-09T02:07:35.007Z,101821.77
2022-10-09T02:08:51.409Z,101824.66
2022-10-09T02:10:07.795Z,101824.61
2022-10-09T02:11:24.157Z,101825.11
2022-10-09T02:12:40.549Z,101824.55
2022-10-09T02:13:57.219Z,101820.34
2022-10-09T02:15:13.606Z,101820.89
2022-10-09T02:16:36.139Z,101818.20
2022-10-09T02:17:52.658Z,101814.20
2022-10-09T02:19:09.074Z,101813.80
2022-10-09T02:20:27.181Z,101812.05
2022-10-09T02:21:46.460Z,101812.75
2022-10-09T02:23:03.153Z,101813.75
2022-10-09T02:24:20.310Z,101814.45
2022-10-09T02:25:36.693Z,101811.66
2022-10-09T02:26:53.362Z,101813.97
2022-10-09T02:28:09.797Z,101811.59
2022-10-09T02:29:26.151Z,101812.40
2022-10-09T02:30:44.003Z,101808.89
2022-10-09T02:32:00.403Z,101809.05
2022-10-09T02:33:17.059Z,101807.78
2022-10-09T02:34:33.432Z,101812.09
2022-10-09T02:35:49.823Z,101810.25
2022-10-09T02:37:06.222Z,101807.45
2022-10-09T02:38:22.602Z,101805.30
2022-10-09T02:39:39.253Z,101806.16
2022-10-09T02:40:57.093Z,101804.42
2022-10-09T02:42:13.489Z,101801.00
2022-10-09T02:43:31.333Z,101804.81
2022-10-09T02:44:47.713Z,101804.52
2022-10-09T02:46:04.439Z,101809.48
2022-10-09T02:47:20.904Z,101807.34
2022-10-09T02:48:37.287Z,101805.01
2022-10-09T02:49:53.656Z,101808.72
2022-10-09T02:51:10.035Z,101808.48
2022-10-09T02:52:28.185Z,101806.02
2022-10-09T02:53:44.556Z,101802.12
2022-10-09T02:55:00.926Z,101801.33
2022-10-09T02:56:18.777Z,101803.00
2022-10-09T02:57:35.177Z,101801.80
2022-10-09T02:58:51.836Z,101802.21
2022-10-09T03:00:09.677Z,101797.46
2022-10-09T03:01:26.130Z,101799.95
2022-10-09T03:02:42.635Z,101799.42
2022-10-09T03:04:00.459Z,101802.88
2022-10-09T03:05:17.099Z,101796.52
2022-10-09T03:06:33.488Z,101802.00
2022-10-09T03:07:49.897Z,101794.59
2022-10-09T03:09:07.767Z,101799.37
2022-10-09T03:10:24.138Z,101798.66
2022-10-09T03:11:40.838Z,101801.58
2022-10-09T03:12:57.200Z,101798.00
2022-10-09T03:14:13.581Z,101797.28
2022-10-09T03:15:29.953Z,101796.25
2022-10-09T03:16:46.358Z,101793.60
2022-10-09T03:18:03.010Z,101794.56
2022-10-09T03:19:19.394Z,101793.38
2022-10-09T03:20:35.793Z,101797.50
2022-10-09T03:21:52.170Z,101798.98
2022-10-09T03:23:08.540Z,101797.55
2022-10-09T03:24:25.198Z,101792.87
2022-10-09T03:25:41.591Z,101803.96
2022-10-09T03:26:57.981Z,101801.53
2022-10-09T03:28:14.385Z,101801.93
2022-10-09T03:29:30.752Z,101801.77
2022-10-09T03:30:47.453Z,101804.69
2022-10-09T03:32:05.327Z,101804.17
2022-10-09T03:33:23.127Z,101798.09
2022-10-09T03:34:40.962Z,101798.14
2022-10-09T03:35:57.374Z,101795.95
2022-10-09T03:37:14.033Z,101794.30
2022-10-09T03:38:30.392Z,101800.92
2022-10-09T03:39:46.774Z,101799.75
2022-10-09T03:41:04.647Z,101800.89
2022-10-09T03:42:21.105Z,101800.70
2022-10-09T03:43:37.744Z,101798.83
2022-10-09T03:44:54.134Z,101799.37
2022-10-09T03:46:10.592Z,101800.20
2022-10-09T03:47:28.404Z,101802.45
2022-10-09T03:48:44.765Z,101800.12
2022-10-09T03:50:01.445Z,101804.01
2022-10-09T03:51:17.817Z,101801.94
2022-10-09T03:52:34.204Z,101800.45
2022-10-09T03:53:50.588Z,101803.88
2022-10-09T03:55:08.463Z,101802.91
2022-10-09T03:56:25.117Z,101799.59
2022-10-09T03:57:41.509Z,101800.80
2022-10-09T03:58:59.330Z,101796.64
2022-10-09T04:00:17.197Z,101798.78
2022-10-09T04:01:33.569Z,101797.52
2022-10-09T04:02:50.610Z,101799.29
2022-10-09T04:04:07.207Z,101800.41
2022-10-09T04:05:23.621Z,101798.80
2022-10-09T04:06:41.451Z,101802.16
2022-10-09T04:07:59.288Z,101802.70
2022-10-09T04:09:15.919Z,101803.03
2022-10-09T04:10:32.395Z,101805.23
2022-10-09T04:11:48.751Z,101803.88
2022-10-09T04:13:05.149Z,101804.06
2022-10-09T04:14:22.971Z,101809.09
2022-10-09T04:15:39.792Z,101805.61
2022-10-09T04:16:56.169Z,101804.78
2022-10-09T04:18:12.559Z,101799.73
2022-10-09T04:19:28.930Z,101801.21
2022-10-09T04:20:47.686Z,101804.19
2022-10-09T04:22:04.385Z,101806.55
2022-10-09T04:23:22.224Z,101804.72
2022-10-09T04:24:38.589Z,101804.48
2022-10-09T04:25:55.007Z,101802.36
2022-10-09T04:27:11.371Z,101801.05
2022-10-09T04:28:28.072Z,101798.27
2022-10-09T04:29:44.502Z,101798.08
2022-10-09T04:31:00.895Z,101802.59
2022-10-09T04:32:17.256Z,101800.70
2022-10-09T04:33:35.093Z,101802.06
2022-10-09T04:34:51.763Z,101801.97
2022-10-09T04:36:08.160Z,101799.02
2022-10-09T04:37:25.965Z,101801.02
2022-10-09T04:38:43.793Z,101796.08
2022-10-09T04:40:00.207Z,101794.27
2022-10-09T04:41:18.313Z,101800.63
2022-10-09T04:42:36.148Z,101796.83
2022-10-09T04:43:52.525Z,101795.28
2022-10-09T04:45:10.384Z,101797.75
2022-10-09T04:46:28.225Z,101796.32
2022-10-09T04:47:44.876Z,101793.67
2022-10-09T04:49:01.255Z,101795.54
2022-10-09T04:50:19.132Z,101794.98
2022-10-09T04:51:35.515Z,101796.01
2022-10-09T04:52:53.336Z,101797.62
2022-10-09T04:54:10.027Z,101797.94
2022-10-09T04:55:26.436Z,101802.61
2022-10-09T04:56:42.835Z,101802.61
2022-10-09T04:57:59.198Z,101798.18
2022-10-09T04:59:17.036Z,101798.55
2022-10-09T05:00:33.808Z,101792.33
2022-10-09T05:01:51.707Z,101794.19
2022-10-09T05:03:08.057Z,101792.02
2022-10-09T05:04:25.886Z,101792.95
2022-10-09T05:05:42.299Z,101794.13
2022-10-09T05:06:58.967Z,101792.48
2022-10-09T05:08:16.788Z,101789.95
2022-10-09T05:09:33.179Z,101790.16
2022-10-09T05:10:51.040Z,101789.73
2022-10-09T05:12:07.429Z,101789.11
2022-10-09T05:13:24.079Z,101784.00
2022-10-09T05:14:41.920Z,101783.20
2022-10-09T05:15:59.996Z,101782.44
2022-10-09T05:17:22.042Z,101782.17
2022-10-09T05:18:39.061Z,101781.20
2022-10-09T05:19:55.723Z,101779.61
2022-10-09T05:21:12.168Z,101778.89
2022-10-09T05:22:30.000Z,101784.94
2022-10-09T05:23:46.380Z,101784.13
2022-10-09T05:25:04.248Z,101777.79
2022-10-09T05:26:20.894Z,101774.89
2022-10-09T05:27:37.283Z,101782.67
2022-10-09T05:28:55.108Z,101784.02
2022-10-09T05:30:11.541Z,101779.00
2022-10-09T05:31:29.445Z,101781.61
2022-10-09T05:32:46.283Z,101779.17
2022-10-09T05:34:04.273Z,101782.03
2022-10-09T05:35:20.644Z,101783.88
2022-10-09T05:36:38.483Z,101787.31
2022-10-09T05:37:54.885Z,101784.94
2022-10-09T05:39:11.554Z,101788.73
2022-10-09T05:40:29.476Z,101786.05
2022-10-09T05:41:47.275Z,101783.81
2022-10-09T05:43:05.127Z,101784.18
2022-10-09T05:44:22.536Z,101776.75
2022-10-09T05:45:39.189Z,101781.80
2022-10-09T05:46:57.044Z,101783.02
2022-10-09T05:48:13.407Z,101785.36
2022-10-09T05:49:31.254Z,101781.02
2022-10-09T05:50:47.666Z,101778.09
2022-10-09T05:52:04.330Z,101782.97
2022-10-09T05:53:20.695Z,101779.54
2022-10-09T05:54:37.082Z,101783.30
2022-10-09T05:55:54.937Z,101779.98
2022-10-09T05:57:11.317Z,101781.27
2022-10-09T05:58:27.966Z,101779.75
2022-10-09T05:59:44.352Z,101788.12
2022-10-09T06:01:00.841Z,101788.38
2022-10-09T06:02:17.394Z,101786.48
2022-10-09T06:03:33.767Z,101786.58
2022-10-09T06:04:50.429Z,101788.47
2022-10-09T06:06:08.291Z,101786.75
2022-10-09T06:07:26.158Z,101787.58
2022-10-09T06:08:43.988Z,101787.58
2022-10-09T06:10:02.350Z,101786.95
2022-10-09T06:11:20.459Z,101784.67
2022-10-09T06:12:38.317Z,101783.31
2022-10-09T06:13:56.139Z,101786.48
2022-10-09T06:15:12.534Z,101790.39
2022-10-09T06:16:28.973Z,101787.08
2022-10-09T06:17:45.624Z,101785.81
2022-10-09T06:19:02.324Z,101783.10
2022-10-09T06:20:20.169Z,101784.41
2022-10-09T06:21:36.591Z,101780.17
2022-10-09T06:22:52.979Z,101785.23
2022-10-09T06:24:09.635Z,101788.82
2022-10-09T06:25:27.480Z,101790.47
2022-10-09T06:26:43.900Z,101793.48
2022-10-09T06:28:00.294Z,101791.61
2022-10-09T06:29:18.113Z,101792.63
2022-10-09T06:30:38.541Z,101792.25
2022-10-09T06:31:55.321Z,101792.02
2022-10-09T06:33:13.154Z,101799.45
2022-10-09T06:34:30.652Z,101796.42
2022-10-09T06:35:47.053Z,101802.92
2022-10-09T06:37:03.742Z,101801.45
2022-10-09T06:38:21.595Z,101802.36
2022-10-09T06:39:37.967Z,101803.34
2022-10-09T06:40:54.364Z,101807.30
2022-10-09T06:42:12.230Z,101808.00
2022-10-09T06:43:28.898Z,101803.70
2022-10-09T06:44:46.223Z,101806.42
2022-10-09T06:46:04.169Z,101805.05
2022-10-09T06:47:20.534Z,101806.27
2022-10-09T06:48:38.374Z,101808.43
2022-10-09T06:49:56.496Z,101805.48
2022-10-09T06:51:14.334Z,101810.40
2022-10-09T06:52:32.177Z,101809.64
2022-10-09T06:53:50.026Z,101809.73
2022-10-09T06:55:07.904Z,101810.11
2022-10-09T06:56:24.557Z,101811.12
2022-10-09T06:57:42.378Z,101812.95
2022-10-09T06:59:00.250Z,101809.11
2022-10-09T07:00:16.624Z,101809.70
2022-10-09T07:01:34.537Z,101811.81
2022-10-09T07:02:51.533Z,101813.91
2022-10-09T07:04:08.228Z,101820.07
2022-10-09T07:05:26.055Z,101819.67
2022-10-09T07:06:43.977Z,101817.05
2022-10-09T07:08:00.349Z,101821.83
2022-10-09T07:09:18.469Z,101815.27
2022-10-09T07:10:36.288Z,101808.12
2022-10-09T07:11:54.178Z,101811.92
2022-10-09T07:13:12.009Z,101807.80
2022-10-09T07:14:29.863Z,101806.34
2022-10-09T07:15:46.580Z,101809.77
2022-10-09T07:17:02.991Z,101811.45
2022-10-09T07:18:19.369Z,101813.61
2022-10-09T07:19:35.789Z,101808.48
2022-10-09T07:20:53.614Z,101800.89
2022-10-09T07:22:10.270Z,101805.10
2022-10-09T07:23:28.125Z,101798.64
2022-10-09T07:24:46.019Z,101803.23
2022-10-09T07:26:03.836Z,101803.87
2022-10-09T07:27:21.695Z,101802.86
2022-10-09T07:28:38.418Z,101808.70
2022-10-09T07:29:56.342Z,101803.48
2022-10-09T07:31:14.238Z,101802.47
2022-10-09T07:32:32.131Z,101804.48
2022-10-09T07:33:48.504Z,101805.09
2022-10-09T07:35:06.741Z,101799.55
2022-10-09T07:36:24.564Z,101801.41
2022-10-09T07:37:42.417Z,101798.69
2022-10-09T07:39:00.240Z,101804.41
2022-10-09T07:40:18.212Z,101809.66
2022-10-09T07:41:36.323Z,101806.83
2022-10-09T07:42:54.174Z,101808.09
2022-10-09T07:44:12.014Z,101806.12
2022-10-09T07:45:28.473Z,101795.98
2022-10-09T07:46:46.395Z,101801.65
2022-10-09T07:48:03.078Z,101804.67
2022-10-09T07:49:20.973Z,101803.25
2022-10-09T07:50:38.837Z,101806.62
2022-10-09T07:51:56.695Z,101807.72
2022-10-09T07:53:14.556Z,101801.28
2022-10-09T07:54:32.662Z,101805.00
2022-10-09T07:55:50.505Z,101809.39
2022-10-09T07:57:08.367Z,101807.73
2022-10-09T07:58:26.239Z,101803.19
2022-10-09T07:59:44.076Z,101803.67
2022-10-09T08:01:02.263Z,101804.59
2022-10-09T08:02:20.168Z,101802.30
2022-10-09T08:03:38.069Z,101805.16
2022-10-09T08:04:55.911Z,101792.06
2022-10-09T08:06:13.758Z,101793.22
2022-10-09T08:07:34.930Z,101785.82
2022-10-09T08:08:52.978Z,101790.81
2022-10-09T08:10:10.809Z,101793.77
2022-10-09T08:11:28.660Z,101791.62
2022-10-09T08:12:46.871Z,101793.45
2022-10-09T08:14:03.711Z,101784.86
2022-10-09T08:15:21.557Z,101787.58
2022-10-09T08:16:39.400Z,101786.61
2022-10-09T08:17:55.833Z,101787.45
2022-10-09T08:19:12.220Z,101784.81
2022-10-09T08:20:30.320Z,101786.55
2022-10-09T08:21:48.167Z,101786.22
2022-10-09T08:23:06.030Z,101779.10
2022-10-09T08:24:23.883Z,101779.12
2022-10-09T08:25:41.725Z,101779.02
2022-10-09T08:26:59.889Z,101781.94
2022-10-09T08:28:17.770Z,101782.56
2022-10-09T08:29:39.942Z,101782.67
2022-10-09T08:30:58.171Z,101779.34
2022-10-09T08:32:15.990Z,101779.61
2022-10-09T08:33:32.659Z,101781.35
2022-10-09T08:34:50.505Z,101779.06
2022-10-09T08:36:08.434Z,101777.88
2022-10-09T08:37:26.287Z,101774.09
2022-10-09T08:38:48.281Z,101774.23
2022-10-09T08:40:06.737Z,101765.30
2022-10-09T08:41:24.569Z,101766.91
2022-10-09T08:42:42.418Z,101763.11
2022-10-09T08:44:00.284Z,101767.14
2022-10-09T08:45:18.461Z,101763.91
2022-10-09T08:46:36.335Z,101764.48
2022-10-09T08:47:54.171Z,101763.59
2022-10-09T08:49:12.004Z,101760.48
2022-10-09T08:50:29.891Z,101762.77
2022-10-09T08:51:48.020Z,101759.69
2022-10-09T08:53:05.852Z,101761.25
2022-10-09T08:54:23.698Z,101758.64
2022-10-09T08:55:41.600Z,101761.27
2022-10-09T08:56:59.425Z,101758.76
2022-10-09T08:58:17.554Z,101756.55
2022-10-09T08:59:35.394Z,101757.42
2022-10-09T09:00:53.298Z,101752.27
2022-10-09T09:02:11.125Z,101750.45
2022-10-09T09:03:28.967Z,101737.25
2022-10-09T09:04:50.017Z,101741.23
2022-10-09T09:06:09.828Z,101737.86
2022-10-09T09:07:27.669Z,101742.20
2022-10-09T09:08:45.539Z,101736.21
2022-10-09T09:10:03.413Z,101736.91
2022-10-09T09:11:22.032Z,101735.28
2022-10-09T09:12:39.891Z,101730.19
2022-10-09T09:13:57.792Z,101725.39
2022-10-09T09:15:15.622Z,101723.38
2022-10-09T09:16:33.472Z,101726.22
2022-10-09T09:17:51.577Z,101731.95
2022-10-09T09:19:09.467Z,101727.56
2022-10-09T09:20:27.301Z,101718.11
2022-10-09T09:21:45.164Z,101719.23
2022-10-09T09:23:03.036Z,101723.47
2022-10-09T09:24:21.169Z,101720.28
2022-10-09T09:25:39.000Z,101714.00
2022-10-09T09:26:55.445Z,101713.22
2022-10-09T09:28:13.321Z,101718.73
2022-10-09T09:29:31.128Z,101713.97
2022-10-09T09:30:47.788Z,101704.48
2022-10-09T09:32:05.678Z,101704.97
2022-10-09T09:33:24.360Z,101704.57
2022-10-09T09:34:42.211Z,101705.48
2022-10-09T09:36:00.032Z,101709.36
2022-10-09T09:37:18.181Z,101703.25
2022-10-09T09:38:43.962Z,101700.66
2022-10-09T09:41:21.411Z,101695.48
2022-10-09T09:42:39.253Z,101695.86
2022-10-09T09:43:55.911Z,101694.31
2022-10-09T09:45:13.787Z,101693.19
2022-10-09T09:46:31.739Z,101690.96
2022-10-09T09:47:49.908Z,101690.16
2022-10-09T09:49:09.533Z,101693.64
2022-10-09T09:50:46.024Z,101686.18
2022-10-09T09:51:48.998Z,101685.09
2022-10-09T09:53:05.406Z,101686.95
2022-10-09T09:54:23.238Z,101683.69
2022-10-09T09:55:41.393Z,101685.77
2022-10-09T09:57:13.030Z,101680.00
2022-10-09T09:58:21.933Z,101675.08
2022-10-09T09:59:38.343Z,101671.45
2022-10-09T10:00:56.243Z,101665.20
2022-10-09T10:02:12.980Z,101662.40
2022-10-09T10:03:29.348Z,101663.85
2022-10-09T10:04:47.246Z,101659.64
2022-10-09T10:06:05.112Z,101657.71
2022-10-09T10:07:23.001Z,101657.78
2022-10-09T10:08:41.104Z,101653.75
2022-10-09T10:09:58.955Z,101652.30
2022-10-09T10:11:16.788Z,101651.92
2022-10-09T10:12:34.676Z,101645.08
2022-10-09T10:13:52.526Z,101645.47
2022-10-09T10:15:10.036Z,101641.15
2022-10-09T10:16:27.920Z,101639.14
2022-10-09T10:17:45.867Z,101638.31
2022-10-09T10:19:03.718Z,101639.38
2022-10-09T10:20:21.568Z,101638.94
2022-10-09T10:21:38.240Z,101634.08
2022-10-09T10:22:56.151Z,101633.72
2022-10-09T10:24:13.997Z,101641.75
2022-10-09T10:25:31.851Z,101637.97
2022-10-09T10:26:49.681Z,101635.30
2022-10-09T10:28:07.622Z,101639.39
2022-10-09T10:29:25.432Z,101632.78
2022-10-09T10:30:43.282Z,101628.47
2022-10-09T10:32:01.149Z,101630.69
2022-10-09T10:33:19.295Z,101630.11
2022-10-09T10:34:37.126Z,101627.94
2022-10-09T10:35:54.975Z,101622.02
2022-10-09T10:37:12.847Z,101626.47
2022-10-09T10:38:30.696Z,101618.06
2022-10-09T10:39:47.368Z,101615.86
2022-10-09T10:41:05.232Z,101611.31
2022-10-09T10:42:23.088Z,101618.68
2022-10-09T10:43:40.918Z,101615.44
2022-10-09T10:44:58.769Z,101616.19
2022-10-09T10:46:15.489Z,101612.20
2022-10-09T10:47:33.635Z,101615.25
2022-10-09T10:48:51.452Z,101607.25
2022-10-09T10:50:09.302Z,101607.24
2022-10-09T10:51:27.162Z,101610.25
2022-10-09T10:52:45.272Z,101602.00
2022-10-09T10:54:03.627Z,101603.30
2022-10-09T10:55:21.567Z,101600.99
2022-10-09T10:56:39.416Z,101602.37
2022-10-09T10:57:57.250Z,101606.39
2022-10-09T10:59:15.536Z,101597.41
2022-10-09T11:00:33.492Z,101599.48
2022-10-09T11:01:51.336Z,101595.13
2022-10-09T11:03:09.279Z,101595.97
2022-10-09T11:04:27.128Z,101595.25
2022-10-09T11:05:44.972Z,101594.58
2022-10-09T11:07:02.780Z,101587.50
2022-10-09T11:08:20.607Z,101581.48
2022-10-09T11:09:38.567Z,101576.61
2022-10-09T11:10:55.212Z,101580.62
2022-10-09T11:12:24.575Z,101577.22
2022-10-09T11:13:35.742Z,101569.72
2022-10-09T11:14:53.584Z,101567.20
2022-10-09T11:16:11.471Z,101573.73
2022-10-09T11:17:29.593Z,101567.23
2022-10-09T11:18:47.499Z,101562.22
2022-10-09T11:20:05.355Z,101559.86
2022-10-09T11:21:23.735Z,101561.02
2022-10-09T11:22:41.565Z,101561.69
2022-10-09T11:23:59.253Z,101557.09
2022-10-09T11:25:17.090Z,101556.80
2022-10-09T11:26:33.601Z,101550.88
2022-10-09T11:27:51.459Z,101540.64
2022-10-09T11:29:09.291Z,101545.59
2022-10-09T11:30:27.421Z,101542.20
2022-10-09T11:31:45.336Z,101542.38
2022-10-09T11:33:03.192Z,101537.36
2022-10-09T11:34:20.384Z,101533.23
2022-10-09T11:35:38.243Z,101526.16
2022-10-09T11:36:56.364Z,101528.61
2022-10-09T11:38:14.275Z,101526.36
2022-10-09T11:39:32.163Z,101527.73
2022-10-09T11:40:50.020Z,101526.79
2022-10-09T11:42:07.861Z,101524.48
2022-10-09T11:43:26.020Z,101521.05
2022-10-09T11:44:42.401Z,101516.61
2022-10-09T11:46:00.411Z,101518.48
2022-10-09T11:47:18.277Z,101517.42
2022-10-09T11:48:36.132Z,101519.86
2022-10-09T11:49:53.711Z,101510.64
2022-10-09T11:51:11.571Z,101504.55
2022-10-09T11:52:29.531Z,101506.45
2022-10-09T11:53:47.381Z,101510.44
2022-10-09T11:55:05.223Z,101508.33
2022-10-09T11:56:23.083Z,101505.90
2022-10-09T11:57:40.974Z,101497.75
2022-10-09T11:58:58.824Z,101500.92
2022-10-09T12:00:17.175Z,101498.11
2022-10-09T12:01:35.354Z,101492.76
2022-10-09T12:02:53.207Z,101490.61
2022-10-09T12:04:11.066Z,101485.95
2022-10-09T12:05:28.898Z,101486.61
2022-10-09T12:06:46.792Z,101482.45
2022-10-09T12:08:04.903Z,101482.66
2022-10-09T12:09:22.788Z,101482.96
2022-10-09T12:10:40.592Z,101477.88
2022-10-09T12:11:58.441Z,101481.15
2022-10-09T12:13:16.293Z,101472.55
2022-10-09T12:14:34.441Z,101471.55
2022-10-09T12:15:52.266Z,101463.90
2022-10-09T12:17:10.113Z,101455.27
2022-10-09T12:18:27.948Z,101456.00
2022-10-09T12:19:45.833Z,101447.51
2022-10-09T12:21:03.925Z,101443.77
2022-10-09T12:22:21.736Z,101446.34
2022-10-09T12:23:39.564Z,101449.09
2022-10-09T12:24:57.406Z,101448.59
2022-10-09T12:26:15.237Z,101444.39
2022-10-09T12:27:31.962Z,101441.66
2022-10-09T12:28:49.832Z,101438.92
2022-10-09T12:30:08.689Z,101436.12
2022-10-09T12:31:26.578Z,101439.13
2022-10-09T12:32:44.400Z,101432.48
2022-10-09T12:34:02.330Z,101429.84
2022-10-09T12:35:20.221Z,101428.42
2022-10-09T12:36:38.065Z,101421.67
2022-10-09T12:37:55.922Z,101424.00
2022-10-09T12:39:12.574Z,101417.28
2022-10-09T12:40:30.509Z,101420.27
2022-10-09T12:41:48.328Z,101414.12
2022-10-09T12:43:06.244Z,101404.73
2022-10-09T12:44:24.077Z,101404.80
2022-10-09T12:45:40.768Z,101403.53
2022-10-09T12:46:58.618Z,101401.09
2022-10-09T12:48:16.499Z,101397.92
2022-10-09T12:49:34.319Z,101398.58
2022-10-09T12:50:52.185Z,101395.42
2022-10-09T12:52:08.841Z,101388.84
2022-10-09T12:53:26.733Z,101386.68
2022-10-09T12:54:44.641Z,101375.94
2022-10-09T12:56:02.511Z,101376.03
2022-10-09T12:57:24.000Z,101375.12
2022-10-09T12:58:43.662Z,101374.27
2022-10-09T13:00:01.496Z,101371.28
2022-10-09T13:01:19.480Z,101371.11
2022-10-09T13:02:37.399Z,101369.09
2022-10-09T13:03:55.568Z,101366.70
2022-10-09T13:05:13.407Z,101361.73
2022-10-09T13:06:31.426Z,101356.08
2022-10-09T13:07:49.267Z,101355.02
2022-10-09T13:09:05.676Z,101353.19
2022-10-09T13:10:23.499Z,101351.91
2022-10-09T13:11:41.396Z,101348.67
2022-10-09T13:12:59.248Z,101351.83
2022-10-09T13:14:17.112Z,101350.22
2022-10-09T13:15:35.274Z,101348.06
2022-10-09T13:16:53.244Z,101346.73
2022-10-09T13:18:11.032Z,101352.02
2022-10-09T13:19:28.885Z,101348.19
2022-10-09T13:20:46.714Z,101346.61
2022-10-09T13:22:04.903Z,101344.31
2022-10-09T13:23:22.714Z,101341.77
2022-10-09T13:24:40.566Z,101342.58
2022-10-09T13:26:01.183Z,101338.32
2022-10-09T13:27:20.607Z,101336.50
2022-10-09T13:28:38.233Z,101337.77
2022-10-09T13:29:56.089Z,101340.97
2022-10-09T13:31:13.979Z,101335.02
2022-10-09T13:32:32.379Z,101336.56
2022-10-09T13:33:50.247Z,101331.72
2022-10-09T13:35:06.909Z,101334.02
2022-10-09T13:36:24.741Z,101330.38
2022-10-09T13:37:42.691Z,101321.94
2022-10-09T13:39:00.524Z,101320.70
2022-10-09T13:40:18.391Z,101320.73
2022-10-09T13:41:36.502Z,101318.50
2022-10-09T13:42:54.383Z,101315.19
2022-10-09T13:44:11.686Z,101310.58
2022-10-09T13:45:29.547Z,101311.09
2022-10-09T13:46:47.415Z,101309.35
2022-10-09T13:48:05.536Z,101302.98
2022-10-09T13:49:23.369Z,101310.91
2022-10-09T13:50:41.219Z,101306.05
2022-10-09T13:51:59.068Z,101304.59
2022-10-09T13:53:16.928Z,101303.73
2022-10-09T13:54:33.591Z,101299.92
2022-10-09T13:55:51.432Z,101299.98
2022-10-09T13:57:09.281Z,101297.83
2022-10-09T13:58:26.601Z,101300.85
2022-10-09T13:59:44.851Z,101298.19
2022-10-09T14:01:03.164Z,101296.93
2022-10-09T14:02:21.035Z,101286.77
2022-10-09T14:03:39.020Z,101288.84
2022-10-09T14:04:55.510Z,101293.89
2022-10-09T14:06:13.360Z,101279.56
2022-10-09T14:07:30.388Z,101278.86
2022-10-09T14:08:48.235Z,101282.82
2022-10-09T14:10:06.146Z,101277.23
2022-10-09T14:11:23.996Z,101276.90
2022-10-09T14:12:41.830Z,101271.12
2022-10-09T14:13:59.687Z,101267.03
2022-10-09T14:15:17.599Z,101265.41
2022-10-09T14:16:35.429Z,101263.81
2022-10-09T14:17:53.261Z,101264.98
2022-10-09T14:19:10.342Z,101266.64
2022-10-09T14:20:28.341Z,101267.12
2022-10-09T14:21:46.190Z,101257.73
2022-10-09T14:23:04.020Z,101259.71
2022-10-09T14:24:21.894Z,101265.77
2022-10-09T14:25:40.004Z,101265.34
2022-10-09T14:26:57.860Z,101261.30
2022-10-09T14:28:15.763Z,101254.81
2022-10-09T14:29:33.632Z,101254.20
2022-10-09T14:30:51.472Z,101255.02
2022-10-09T14:32:09.584Z,101251.95
2022-10-09T14:33:27.435Z,101249.80
2022-10-09T14:34:45.286Z,101243.72
2022-10-09T14:36:03.136Z,101244.41
2022-10-09T14:37:40.027Z,101241.64
2022-10-09T14:38:43.695Z,101245.43
2022-10-09T14:40:01.537Z,101239.45
2022-10-09T14:41:19.377Z,101239.45
2022-10-09T14:42:37.265Z,101239.62
2022-10-09T14:43:55.081Z,101237.03
2022-10-09T14:45:11.471Z,101233.81